createdAt,value
2019-01-17T00:01:10.063Z,8.97
2019-01-17T00:17:52.083Z,10.00
2019-01-17T00:35:15.454Z,9.87
2019-01-17T00:46:25.823Z,11.40
2019-01-17T00:52:03.492Z,9.93
2019-01-17T01:08:39.448Z,7.80
2019-01-17T01:19:46.234Z,8.03
2019-01-17T01:25:45.558Z,8.25
2019-01-17T01:31:23.298Z,7.53
2019-01-17T01:48:02.322Z,8.07
2019-01-17T01:53:40.128Z,8.45
2019-01-17T02:04:31.323Z,8.47
2019-01-17T02:09:49.860Z,8.25
2019-01-17T02:15:08.409Z,7.27
2019-01-17T02:20:26.932Z,7.70
2019-01-17T02:25:45.550Z,8.63
2019-01-17T02:31:04.142Z,8.13
2019-01-17T02:36:22.686Z,8.05
2019-01-17T02:41:41.287Z,8.27
2019-01-17T02:46:59.903Z,7.97
2019-01-17T02:52:18.513Z,7.83
2019-01-17T02:57:37.310Z,7.93
2019-01-17T03:02:55.794Z,8.47
2019-01-17T03:08:14.396Z,8.77
2019-01-17T03:13:32.932Z,9.03
2019-01-17T03:18:51.400Z,10.63
2019-01-17T03:24:09.872Z,10.00
2019-01-17T03:29:28.341Z,11.40
2019-01-17T03:34:47.068Z,11.73
2019-01-17T03:40:26.700Z,11.75
2019-01-17T03:45:45.248Z,12.63
2019-01-17T03:51:03.859Z,13.37
2019-01-17T03:56:22.388Z,13.80
2019-01-17T04:01:40.936Z,14.40
2019-01-17T04:06:59.399Z,14.27
2019-01-17T04:17:48.445Z,14.53
2019-01-17T04:23:06.986Z,15.13
2019-01-17T04:28:25.582Z,12.70
2019-01-17T04:33:44.048Z,12.43
2019-01-17T04:39:02.684Z,11.20
2019-01-17T04:44:21.241Z,11.63
2019-01-17T04:49:39.699Z,11.70
2019-01-17T04:55:04.816Z,11.37
2019-01-17T05:00:58.450Z,13.30
2019-01-17T05:06:17.241Z,12.60
2019-01-17T05:11:35.779Z,11.57
2019-01-17T05:16:54.409Z,12.20
2019-01-17T05:22:12.853Z,13.67
2019-01-17T05:27:31.458Z,13.17
2019-01-17T05:32:49.996Z,12.23
2019-01-17T05:38:08.521Z,14.00
2019-01-17T05:43:27.355Z,13.93
2019-01-17T05:48:46.823Z,14.10
2019-01-17T05:54:06.303Z,14.60
2019-01-17T05:59:24.827Z,17.50
2019-01-17T06:04:43.359Z,17.10
2019-01-17T06:10:01.840Z,16.30
2019-01-17T06:20:52.452Z,13.90
2019-01-17T06:26:11.056Z,15.83
2019-01-17T06:31:29.606Z,15.10
2019-01-17T06:37:07.399Z,15.97
2019-01-17T06:42:25.950Z,14.90
2019-01-17T06:47:44.919Z,14.40
2019-01-17T06:53:03.536Z,14.37
2019-01-17T06:58:21.983Z,14.30
2019-01-17T07:03:40.593Z,14.40
2019-01-17T07:09:13.331Z,14.47
2019-01-17T07:14:19.384Z,12.60
2019-01-17T07:19:37.919Z,12.43
2019-01-17T07:24:56.380Z,13.67
2019-01-17T07:30:54.751Z,12.47
2019-01-17T07:36:32.426Z,10.67
2019-01-17T07:41:51.049Z,12.97
2019-01-17T07:47:09.683Z,12.43
2019-01-17T07:52:28.308Z,10.37
2019-01-17T07:57:46.930Z,9.33
2019-01-17T08:03:05.667Z,8.33
2019-01-17T08:08:24.198Z,8.73
2019-01-17T08:13:42.756Z,9.13
2019-01-17T08:19:01.440Z,9.27
2019-01-17T08:24:20.060Z,9.35
2019-01-17T08:29:38.665Z,9.60
2019-01-17T08:34:57.355Z,9.97
2019-01-17T08:40:20.434Z,10.27
2019-01-17T08:45:39.279Z,12.03
2019-01-17T08:50:57.906Z,11.60
2019-01-17T08:56:16.528Z,11.13
2019-01-17T09:01:35.179Z,11.53
2019-01-17T09:06:53.847Z,10.00
2019-01-17T09:12:12.494Z,10.50
2019-01-17T09:17:31.158Z,12.03
2019-01-17T09:22:49.796Z,8.87
2019-01-17T09:28:08.430Z,8.73
2019-01-17T09:33:27.454Z,8.07
2019-01-17T09:38:46.044Z,9.30
2019-01-17T09:44:04.796Z,8.10
2019-01-17T09:49:23.532Z,7.60
2019-01-17T09:54:42.165Z,6.97
2019-01-17T10:00:00.790Z,6.13
2019-01-17T10:05:19.400Z,5.80
2019-01-17T10:10:38.020Z,5.90
2019-01-17T10:15:59.548Z,5.33
2019-01-17T10:21:40.407Z,5.03
2019-01-17T10:27:01.949Z,5.13
2019-01-17T10:32:35.515Z,6.17
2019-01-17T10:38:02.845Z,6.03
2019-01-17T10:43:30.011Z,6.67
2019-01-17T10:48:51.554Z,4.30
2019-01-17T10:54:19.005Z,4.53
2019-01-17T10:59:40.570Z,4.50
2019-01-17T11:05:07.860Z,3.13
2019-01-17T11:10:53.923Z,1.93
2019-01-17T11:16:34.600Z,2.13
2019-01-17T11:22:12.620Z,2.10
2019-01-17T11:27:43.287Z,2.00
2019-01-17T11:33:07.545Z,2.33
2019-01-17T11:38:44.174Z,2.20
2019-01-17T11:44:05.774Z,2.50
2019-01-17T11:49:43.800Z,2.03
2019-01-17T11:55:11.115Z,2.05
2019-01-17T12:00:35.451Z,2.60
2019-01-17T12:05:54.082Z,2.60
2019-01-17T12:11:12.876Z,3.00
2019-01-17T12:16:31.756Z,3.30
2019-01-17T12:21:50.466Z,4.10
2019-01-17T12:27:10.288Z,5.30
2019-01-17T12:32:28.891Z,5.23
2019-01-17T12:37:47.538Z,6.50
2019-01-17T12:43:06.636Z,7.00
2019-01-17T12:48:25.292Z,7.27
2019-01-17T12:53:45.017Z,6.10
2019-01-17T12:59:03.738Z,6.37
2019-01-17T13:04:22.376Z,6.53
2019-01-17T13:09:41.122Z,6.40
2019-01-17T13:14:59.788Z,4.50
2019-01-17T13:20:18.520Z,5.00
2019-01-17T13:25:37.180Z,5.10
2019-01-17T13:30:55.829Z,4.83
2019-01-17T13:36:15.693Z,5.90
2019-01-17T13:41:34.328Z,6.60
2019-01-17T13:46:53.348Z,6.87
2019-01-17T13:52:12.003Z,7.30
2019-01-17T13:57:31.505Z,7.57
2019-01-17T14:02:50.252Z,7.37
2019-01-17T14:08:08.921Z,7.25
2019-01-17T14:13:27.592Z,7.03
2019-01-17T14:18:46.233Z,8.33
2019-01-17T14:24:05.115Z,8.65
2019-01-17T14:29:23.836Z,8.77
2019-01-17T14:34:42.739Z,9.37
2019-01-17T14:40:03.258Z,6.73
2019-01-17T14:45:22.847Z,7.65
2019-01-17T14:50:41.787Z,7.33
2019-01-17T14:56:00.418Z,7.10
2019-01-17T15:01:19.645Z,6.13
2019-01-17T15:06:38.294Z,4.33
2019-01-17T15:11:56.940Z,4.92
2019-01-17T15:17:15.665Z,5.07
2019-01-17T15:22:34.261Z,5.43
2019-01-17T15:27:53.007Z,2.60
2019-01-17T15:33:11.545Z,1.77
2019-01-17T15:38:30.193Z,1.80
2019-01-17T15:43:50.015Z,2.20
2019-01-17T15:49:08.681Z,2.40
2019-01-17T15:54:27.362Z,2.17
2019-01-17T15:59:45.940Z,2.60
2019-01-17T16:05:06.192Z,1.97
2019-01-17T16:10:24.810Z,2.23
2019-01-17T16:15:43.519Z,1.83
2019-01-17T16:21:02.216Z,2.20
2019-01-17T16:26:22.395Z,2.00
2019-01-17T16:31:41.103Z,1.60
2019-01-17T16:37:00.181Z,1.60
2019-01-17T16:42:18.896Z,4.37
2019-01-17T16:47:37.436Z,2.13
2019-01-17T16:52:56.102Z,2.60
2019-01-17T16:58:15.087Z,3.90
2019-01-17T17:03:33.660Z,5.60
2019-01-17T17:08:52.285Z,7.07
2019-01-17T17:14:11.311Z,6.60
2019-01-17T17:19:30.140Z,7.10
2019-01-17T17:24:48.893Z,6.67
2019-01-17T17:30:10.479Z,6.03
2019-01-17T17:35:29.138Z,6.00
2019-01-17T17:40:47.863Z,6.57
2019-01-17T17:46:06.456Z,7.27
2019-01-17T17:51:25.082Z,8.90
2019-01-17T17:56:43.739Z,7.65
2019-01-17T18:02:02.920Z,9.07
2019-01-17T18:07:21.554Z,8.17
2019-01-17T18:12:40.210Z,8.67
2019-01-17T18:17:58.853Z,8.80
2019-01-17T18:23:17.437Z,8.57
2019-01-17T18:28:37.679Z,8.77
2019-01-17T18:33:56.255Z,10.57
2019-01-17T18:39:15.068Z,10.88
2019-01-17T18:44:33.719Z,10.70
2019-01-17T18:49:52.335Z,10.53
2019-01-17T18:55:11.096Z,11.23
2019-01-17T19:00:30.987Z,10.83
2019-01-17T19:05:49.601Z,11.83
2019-01-17T19:11:08.303Z,11.57
2019-01-17T19:16:26.986Z,12.67
2019-01-17T19:21:47.081Z,12.17
2019-01-17T19:27:08.865Z,12.17
2019-01-17T19:32:27.444Z,14.77
2019-01-17T19:37:46.159Z,11.00
2019-01-17T19:43:13.936Z,11.87
2019-01-17T19:48:29.930Z,11.77
2019-01-17T19:53:48.547Z,11.30
2019-01-17T19:59:07.169Z,12.33
2019-01-17T20:04:26.071Z,13.17
2019-01-17T20:09:44.781Z,12.23
2019-01-17T20:15:03.663Z,12.40
2019-01-17T20:20:22.457Z,10.93
2019-01-17T20:25:41.205Z,10.67
2019-01-17T20:30:59.878Z,10.93
2019-01-17T20:36:18.531Z,11.03
2019-01-17T20:41:37.219Z,11.50
2019-01-17T20:46:55.839Z,12.87
2019-01-17T20:52:14.737Z,12.57
2019-01-17T20:57:33.565Z,13.87
2019-01-17T21:02:52.284Z,13.27
2019-01-17T21:08:10.917Z,13.75
2019-01-17T21:13:29.611Z,12.97
2019-01-17T21:18:48.253Z,13.27
2019-01-17T21:24:06.971Z,13.27
2019-01-17T21:29:25.570Z,13.20
2019-01-17T21:34:44.149Z,12.73
2019-01-17T21:40:02.909Z,13.80
2019-01-17T21:45:21.912Z,12.18
2019-01-17T21:50:40.569Z,13.67
2019-01-17T21:55:59.181Z,13.17
2019-01-17T22:01:17.813Z,14.33
2019-01-17T22:06:36.435Z,15.37
2019-01-17T22:11:55.178Z,16.27
2019-01-17T22:17:13.723Z,17.12
2019-01-17T22:22:32.361Z,16.27
2019-01-17T22:27:52.697Z,15.30
2019-01-17T22:33:11.365Z,12.80
2019-01-17T22:38:30.087Z,12.37
2019-01-17T22:43:48.626Z,12.27
2019-01-17T22:49:07.197Z,13.13
2019-01-17T22:54:25.757Z,11.63
2019-01-17T22:59:44.380Z,13.23
2019-01-17T23:05:03.360Z,13.35
2019-01-17T23:10:22.046Z,14.70
2019-01-17T23:15:40.630Z,13.87
2019-01-17T23:20:59.205Z,13.37
2019-01-17T23:26:17.811Z,13.87
2019-01-17T23:31:36.434Z,13.70
2019-01-17T23:36:55.073Z,13.00
2019-01-17T23:42:13.684Z,12.47
2019-01-17T23:47:32.247Z,13.23
2019-01-17T23:52:50.841Z,12.07
2019-01-17T23:58:09.462Z,16.13
